Time;durP1;ratioP1;P1;durP2;ratioP2;P2;SDS_P1;SDS_P2;PMS_P1;PMS_P2;Temp;Humidity;BMP_temperature;BMP_pressure;BME280_temperature;BME280_humidity;BME280_pressure;Samples;Min_cycle;Max_cycle;Signal;HPM_P1;HPM_P2
2023/01/23 00:02:08;;;;;;;18.98;10.07;;;;;;;;;;4988297;28;20125;-74
2023/01/23 00:04:33;;;;;;;24.02;9.73;;;;;;;;;;4987683;28;20106;-73
2023/01/23 00:06:59;;;;;;;19.70;10.07;;;;;;;;;;4987788;28;20118;-74
2023/01/23 00:09:26;;;;;;;25.35;10.15;;;;;;;;;;4985789;28;20046;-72
2023/01/23 00:11:51;;;;;;;19.83;9.82;;;;;;;;;;4988025;28;20034;-74
2023/01/23 00:14:19;;;;;;;22.17;10.00;;;;;;;;;;4987038;28;20081;-74
2023/01/23 00:16:44;;;;;;;16.95;10.18;;;;;;;;;;4987860;28;20539;-74
2023/01/23 00:19:10;;;;;;;22.02;9.73;;;;;;;;;;4986784;28;20114;-75
2023/01/23 00:21:35;;;;;;;18.13;9.98;;;;;;;;;;4987339;28;20054;-75
2023/01/23 00:24:03;;;;;;;23.38;10.27;;;;;;;;;;4985309;28;20347;-74
2023/01/23 00:26:31;;;;;;;19.70;10.60;;;;;;;;;;4987191;28;20034;-74
2023/01/23 00:28:56;;;;;;;24.10;10.40;;;;;;;;;;4986824;28;20089;-73
2023/01/23 00:31:24;;;;;;;26.30;11.88;;;;;;;;;;4987300;28;20058;-73
2023/01/23 00:33:56;;;;;;;25.30;12.43;;;;;;;;;;4985427;28;20053;-74
2023/01/23 00:36:21;;;;;;;23.95;12.10;;;;;;;;;;4986898;28;20080;-74
2023/01/23 00:38:47;;;;;;;21.75;12.32;;;;;;;;;;4986793;28;20038;-74
2023/01/23 00:41:12;;;;;;;26.88;12.60;;;;;;;;;;4984725;28;20483;-74
2023/01/23 00:43:37;;;;;;;25.05;11.65;;;;;;;;;;4986789;28;20026;-74
2023/01/23 00:46:06;;;;;;;18.92;10.52;;;;;;;;;;4984632;28;20026;-73
2023/01/23 00:48:31;;;;;;;20.63;11.63;;;;;;;;;;4985350;28;20074;-74
2023/01/23 00:50:57;;;;;;;26.30;12.35;;;;;;;;;;4983572;28;20054;-74
2023/01/23 00:53:22;;;;;;;23.38;11.57;;;;;;;;;;4985427;28;20034;-73
2023/01/23 00:55:47;;;;;;;21.02;11.43;;;;;;;;;;4986301;28;20153;-74
2023/01/23 00:58:13;;;;;;;27.00;12.85;;;;;;;;;;4987288;28;20391;-75
2023/01/23 01:00:38;;;;;;;29.85;13.52;;;;;;;;;;4984564;28;20026;-73
2023/01/23 01:03:06;;;;;;;29.23;13.48;;;;;;;;;;4985025;28;20026;-75
2023/01/23 01:05:32;;;;;;;28.50;12.95;;;;;;;;;;4985753;28;20027;-73
2023/01/23 01:07:57;;;;;;;26.10;13.85;;;;;;;;;;4985134;28;20501;-73
2023/01/23 01:10:24;;;;;;;22.60;12.23;;;;;;;;;;4986035;28;20125;-73
2023/01/23 01:12:49;;;;;;;27.52;12.73;;;;;;;;;;4986262;28;20072;-74
2023/01/23 01:15:15;;;;;;;23.75;12.07;;;;;;;;;;5000853;28;20435;-73
2023/01/23 01:17:40;;;;;;;22.67;13.00;;;;;;;;;;4986092;28;20573;-72
2023/01/23 01:20:06;;;;;;;27.42;13.30;;;;;;;;;;4965457;28;20030;-71
2023/01/23 01:22:31;;;;;;;28.27;13.40;;;;;;;;;;4984717;28;20061;-71
2023/01/23 01:24:59;;;;;;;29.25;12.48;;;;;;;;;;4984036;28;20050;-72
2023/01/23 01:27:24;;;;;;;28.08;13.38;;;;;;;;;;4984257;28;20268;-71
2023/01/23 01:29:50;;;;;;;31.55;13.98;;;;;;;;;;4982913;28;20058;-71
2023/01/23 01:32:15;;;;;;;28.83;13.73;;;;;;;;;;4985223;28;20037;-75
2023/01/23 01:34:40;;;;;;;28.35;14.95;;;;;;;;;;4984036;28;20104;-73
2023/01/23 01:37:06;;;;;;;26.77;14.45;;;;;;;;;;4981864;28;20045;-72
2023/01/23 01:39:31;;;;;;;28.17;15.25;;;;;;;;;;4981401;28;20486;-71
2023/01/23 01:41:56;;;;;;;29.42;15.90;;;;;;;;;;4983161;28;20041;-71
2023/01/23 01:44:23;;;;;;;27.75;13.73;;;;;;;;;;4983569;28;20042;-71
2023/01/23 01:46:49;;;;;;;27.00;13.30;;;;;;;;;;4993373;28;20037;-72
2023/01/23 01:49:17;;;;;;;23.13;12.57;;;;;;;;;;5003539;28;20379;-72
2023/01/23 01:51:55;;;;;;;25.63;12.70;;;;;;;;;;4984380;28;20117;-72
2023/01/23 01:54:20;;;;;;;31.77;13.13;;;;;;;;;;5002851;28;20029;-72
2023/01/23 01:56:49;;;;;;;26.20;12.98;;;;;;;;;;5001535;28;20152;-71
2023/01/23 01:59:15;;;;;;;31.90;13.32;;;;;;;;;;5001092;28;20442;-72
2023/01/23 02:01:46;;;;;;;27.63;13.00;;;;;;;;;;5002436;28;20118;-73
2023/01/23 02:04:11;;;;;;;25.50;12.45;;;;;;;;;;4986949;28;20037;-74
2023/01/23 02:06:37;;;;;;;25.77;13.98;;;;;;;;;;5004256;28;20383;-74
2023/01/23 02:09:23;;;;;;;25.15;12.90;;;;;;;;;;5001509;28;20121;-72
2023/01/23 02:11:49;;;;;;;27.73;12.55;;;;;;;;;;5003072;28;20030;-74
2023/01/23 02:14:14;;;;;;;25.35;12.85;;;;;;;;;;5004537;28;20030;-74
2023/01/23 02:16:42;;;;;;;27.33;13.45;;;;;;;;;;5003973;28;20483;-74
2023/01/23 02:19:15;;;;;;;24.05;12.50;;;;;;;;;;5003903;28;20033;-73
2023/01/23 02:21:42;;;;;;;24.80;13.15;;;;;;;;;;5002231;28;20026;-73
2023/01/23 02:24:18;;;;;;;21.58;12.52;;;;;;;;;;5004432;28;20034;-73
2023/01/23 02:26:44;;;;;;;23.27;12.13;;;;;;;;;;5004051;28;20026;-73
2023/01/23 02:29:10;;;;;;;26.40;12.93;;;;;;;;;;5004350;28;20088;-74
2023/01/23 02:31:36;;;;;;;25.80;13.20;;;;;;;;;;5004528;28;20244;-74
2023/01/23 02:34:02;;;;;;;27.33;13.38;;;;;;;;;;5004467;28;20499;-74
2023/01/23 02:36:28;;;;;;;26.42;13.35;;;;;;;;;;5004234;28;20048;-74
2023/01/23 02:39:00;;;;;;;26.55;13.23;;;;;;;;;;5004407;28;20065;-74
2023/01/23 02:41:30;;;;;;;27.55;13.30;;;;;;;;;;5002535;28;20030;-73
2023/01/23 02:43:57;;;;;;;25.95;12.73;;;;;;;;;;4996488;28;20023;-73
2023/01/23 02:46:23;;;;;;;24.92;13.70;;;;;;;;;;4990937;28;20056;-74
2023/01/23 02:48:48;;;;;;;28.65;13.60;;;;;;;;;;5004184;28;20038;-73
2023/01/23 02:51:15;;;;;;;27.38;13.02;;;;;;;;;;5004183;28;20022;-73
2023/01/23 02:53:41;;;;;;;27.35;13.55;;;;;;;;;;5004023;28;20479;-73
2023/01/23 02:56:06;;;;;;;27.58;15.57;;;;;;;;;;5002413;28;20022;-73
2023/01/23 03:01:15;;;;;;;29.23;14.52;;;;;;;;;;5009503;28;20548;-73
2023/01/23 03:03:42;;;;;;;31.80;15.05;;;;;;;;;;5006937;28;20030;-74
2023/01/23 03:06:07;;;;;;;28.17;14.93;;;;;;;;;;5005439;28;20029;-73
2023/01/23 03:08:33;;;;;;;26.15;14.43;;;;;;;;;;5006122;28;20014;-74
2023/01/23 03:10:59;;;;;;;24.13;13.65;;;;;;;;;;5005399;28;20037;-73
2023/01/23 03:13:25;;;;;;;26.58;13.65;;;;;;;;;;5005763;28;20038;-73
2023/01/23 03:15:51;;;;;;;33.90;13.35;;;;;;;;;;5006889;28;20144;-72
2023/01/23 03:18:17;;;;;;;22.52;13.10;;;;;;;;;;5006913;28;20390;-73
2023/01/23 03:20:42;;;;;;;29.77;13.27;;;;;;;;;;4989143;28;20121;-73
2023/01/23 03:23:08;;;;;;;27.35;14.00;;;;;;;;;;5007429;28;20026;-74
2023/01/23 03:25:36;;;;;;;23.83;13.95;;;;;;;;;;5005364;28;20022;-74
2023/01/23 03:28:02;;;;;;;26.80;13.63;;;;;;;;;;5007266;28;20450;-73
2023/01/23 03:30:27;;;;;;;29.73;13.90;;;;;;;;;;5006863;28;20088;-73
2023/01/23 03:32:53;;;;;;;25.75;14.23;;;;;;;;;;4993073;28;20061;-73
2023/01/23 03:35:21;;;;;;;27.15;13.55;;;;;;;;;;4987213;28;20228;-72
2023/01/23 03:37:49;;;;;;;27.50;13.45;;;;;;;;;;4984624;28;20038;-71
2023/01/23 03:43:03;;;;;;;25.65;14.70;;;;;;;;;;4986724;28;20117;-73
2023/01/23 03:45:28;;;;;;;27.95;14.30;;;;;;;;;;4969536;28;20337;-74
2023/01/23 03:47:54;;;;;;;28.17;14.45;;;;;;;;;;4985044;28;20178;-73
2023/01/23 03:50:19;;;;;;;33.75;14.80;;;;;;;;;;4987107;28;20446;-74
2023/01/23 03:52:44;;;;;;;30.65;14.25;;;;;;;;;;4986865;28;20033;-72
2023/01/23 03:55:10;;;;;;;29.75;14.35;;;;;;;;;;4987388;28;20030;-73
2023/01/23 03:57:35;;;;;;;31.52;15.32;;;;;;;;;;4987090;28;20249;-72
2023/01/23 04:00:04;;;;;;;27.38;15.27;;;;;;;;;;4987152;28;20254;-73
2023/01/23 04:02:31;;;;;;;31.38;16.35;;;;;;;;;;4984778;28;20220;-74
2023/01/23 04:04:57;;;;;;;27.58;16.60;;;;;;;;;;4985246;28;20034;-73
2023/01/23 04:07:22;;;;;;;32.63;16.77;;;;;;;;;;4984993;28;20253;-73
2023/01/23 04:09:49;;;;;;;33.30;16.50;;;;;;;;;;4969017;28;20303;-73
2023/01/23 04:12:17;;;;;;;29.20;15.82;;;;;;;;;;4986482;28;20387;-73
2023/01/23 04:14:42;;;;;;;29.13;15.63;;;;;;;;;;4985861;28;20041;-73
2023/01/23 04:17:08;;;;;;;29.63;15.70;;;;;;;;;;4985408;28;20026;-73
2023/01/23 04:19:35;;;;;;;26.67;15.35;;;;;;;;;;4986622;28;20483;-74
2023/01/23 04:22:01;;;;;;;30.10;16.15;;;;;;;;;;4987115;28;20035;-74
2023/01/23 04:24:26;;;;;;;29.23;14.38;;;;;;;;;;4984970;28;20466;-73
2023/01/23 04:26:51;;;;;;;26.90;15.25;;;;;;;;;;4986937;28;20484;-74
2023/01/23 04:29:17;;;;;;;26.60;14.98;;;;;;;;;;4984856;28;20042;-72
2023/01/23 04:31:42;;;;;;;32.80;16.35;;;;;;;;;;4984606;28;20026;-74
2023/01/23 04:34:09;;;;;;;29.83;14.88;;;;;;;;;;4985905;28;20031;-72
2023/01/23 04:36:34;;;;;;;27.98;15.27;;;;;;;;;;4986131;28;20040;-74
2023/01/23 04:39:00;;;;;;;27.92;15.40;;;;;;;;;;4984794;28;20480;-74
2023/01/23 04:41:26;;;;;;;26.27;16.20;;;;;;;;;;5000796;28;20296;-74
2023/01/23 04:43:53;;;;;;;29.27;16.42;;;;;;;;;;4984279;28;20116;-71
2023/01/23 04:46:19;;;;;;;27.85;16.65;;;;;;;;;;4989333;28;20060;-72
2023/01/23 04:48:46;;;;;;;31.58;17.15;;;;;;;;;;5004053;28;20030;-72
2023/01/23 04:51:12;;;;;;;29.60;16.17;;;;;;;;;;5004646;28;20476;-73
2023/01/23 04:53:37;;;;;;;28.60;16.00;;;;;;;;;;5005476;28;20132;-73
2023/01/23 04:56:07;;;;;;;30.65;15.40;;;;;;;;;;5005429;28;20037;-74
2023/01/23 04:58:33;;;;;;;30.33;16.45;;;;;;;;;;5003503;28;20056;-73
2023/01/23 05:01:05;;;;;;;28.90;15.13;;;;;;;;;;5005719;28;20101;-72
2023/01/23 05:03:31;;;;;;;30.33;15.73;;;;;;;;;;5003416;28;20029;-73
2023/01/23 05:05:56;;;;;;;28.70;16.73;;;;;;;;;;5005531;28;20029;-74
2023/01/23 05:08:22;;;;;;;27.95;15.30;;;;;;;;;;5005102;28;20041;-74
2023/01/23 05:10:49;;;;;;;25.48;15.70;;;;;;;;;;5003504;28;20042;-73
2023/01/23 05:13:15;;;;;;;27.52;17.00;;;;;;;;;;5002056;28;20021;-71
2023/01/23 05:15:40;;;;;;;28.73;17.23;;;;;;;;;;5003749;28;20099;-71
2023/01/23 05:18:05;;;;;;;55.13;19.40;;;;;;;;;;5003231;28;20026;-72
2023/01/23 05:20:30;;;;;;;38.08;19.60;;;;;;;;;;5001855;28;20079;-72
2023/01/23 05:22:56;;;;;;;33.75;18.88;;;;;;;;;;5001564;28;20030;-72
2023/01/23 05:25:22;;;;;;;34.05;19.38;;;;;;;;;;5003354;28;20034;-71
2023/01/23 05:27:47;;;;;;;36.20;18.90;;;;;;;;;;5001901;28;20060;-71
2023/01/23 05:30:13;;;;;;;35.22;19.58;;;;;;;;;;5004088;28;20065;-73
2023/01/23 05:32:40;;;;;;;28.70;16.90;;;;;;;;;;5002936;28;20053;-73
2023/01/23 05:35:06;;;;;;;35.53;19.17;;;;;;;;;;5005242;28;20034;-74
2023/01/23 05:37:31;;;;;;;33.42;18.90;;;;;;;;;;5004660;28;20109;-72
2023/01/23 05:39:57;;;;;;;35.20;20.02;;;;;;;;;;5004222;28;20041;-73
2023/01/23 05:42:23;;;;;;;40.30;20.45;;;;;;;;;;4996877;28;20514;-72
2023/01/23 05:44:48;;;;;;;43.25;21.05;;;;;;;;;;4967064;28;20073;-73
2023/01/23 05:47:14;;;;;;;33.92;19.35;;;;;;;;;;4982792;28;20089;-72
2023/01/23 05:49:41;;;;;;;40.58;20.50;;;;;;;;;;4984858;28;20046;-73
2023/01/23 05:52:06;;;;;;;38.15;19.77;;;;;;;;;;4984741;28;20034;-72
2023/01/23 05:54:31;;;;;;;35.95;19.70;;;;;;;;;;4983188;28;20049;-73
2023/01/23 05:56:57;;;;;;;37.22;19.02;;;;;;;;;;4984511;28;20057;-72
2023/01/23 05:59:22;;;;;;;38.95;19.73;;;;;;;;;;4983277;28;20034;-73
2023/01/23 06:01:47;;;;;;;37.67;19.50;;;;;;;;;;4984453;28;20406;-73
2023/01/23 06:04:15;;;;;;;39.97;19.85;;;;;;;;;;4984768;28;20030;-73
2023/01/23 06:06:42;;;;;;;34.92;19.13;;;;;;;;;;4984213;28;20041;-72
2023/01/23 06:09:08;;;;;;;34.88;19.17;;;;;;;;;;4984680;28;20312;-72
2023/01/23 06:11:33;;;;;;;40.38;20.67;;;;;;;;;;4981605;28;20105;-72
2023/01/23 06:13:59;;;;;;;35.05;19.20;;;;;;;;;;4983698;28;20034;-72
2023/01/23 06:16:24;;;;;;;35.78;18.77;;;;;;;;;;4981064;28;20109;-72
2023/01/23 06:18:49;;;;;;;35.85;19.42;;;;;;;;;;4983455;28;20037;-72
2023/01/23 06:21:17;;;;;;;30.00;16.83;;;;;;;;;;4965087;28;20034;-72
2023/01/23 06:23:42;;;;;;;34.30;17.70;;;;;;;;;;4983763;28;20027;-73
2023/01/23 06:26:10;;;;;;;36.38;17.30;;;;;;;;;;4983964;28;20029;-73
2023/01/23 06:28:35;;;;;;;28.33;16.55;;;;;;;;;;4984714;28;20023;-73
2023/01/23 06:31:02;;;;;;;27.80;16.92;;;;;;;;;;4982633;28;20046;-73
2023/01/23 06:33:27;;;;;;;32.15;16.52;;;;;;;;;;4984287;28;20503;-73
2023/01/23 06:36:00;;;;;;;35.20;17.98;;;;;;;;;;4984153;28;20137;-72
2023/01/23 06:38:25;;;;;;;32.72;18.73;;;;;;;;;;4983799;28;20057;-74
2023/01/23 06:40:51;;;;;;;33.55;16.40;;;;;;;;;;4988135;28;20437;-73
2023/01/23 06:43:16;;;;;;;36.92;18.98;;;;;;;;;;4970899;28;20031;-73
2023/01/23 06:45:45;;;;;;;27.00;16.95;;;;;;;;;;4970479;28;20051;-74
2023/01/23 06:48:10;;;;;;;36.80;17.75;;;;;;;;;;5007497;28;20022;-73
2023/01/23 06:50:38;;;;;;;33.40;17.77;;;;;;;;;;5007500;28;20549;-74
2023/01/23 06:53:04;;;;;;;33.25;19.00;;;;;;;;;;5006082;28;20037;-73
2023/01/23 06:55:29;;;;;;;33.20;18.63;;;;;;;;;;5006550;28;20053;-73
2023/01/23 06:57:55;;;;;;;32.65;19.50;;;;;;;;;;5006959;28;20108;-73
2023/01/23 07:00:21;;;;;;;36.35;20.60;;;;;;;;;;5005396;28;20046;-73
2023/01/23 07:02:46;;;;;;;37.08;19.35;;;;;;;;;;5005033;28;20080;-73
2023/01/23 07:05:11;;;;;;;34.75;19.60;;;;;;;;;;5007279;28;20029;-73
2023/01/23 07:07:39;;;;;;;35.35;21.15;;;;;;;;;;5004943;28;20037;-72
2023/01/23 07:10:04;;;;;;;39.20;20.17;;;;;;;;;;5006364;28;20572;-71
2023/01/23 07:12:32;;;;;;;40.85;22.92;;;;;;;;;;5005482;28;20065;-71
2023/01/23 07:14:59;;;;;;;38.72;20.13;;;;;;;;;;5006236;28;20054;-71
2023/01/23 07:17:25;;;;;;;34.15;18.95;;;;;;;;;;5004568;28;20565;-71
2023/01/23 07:19:50;;;;;;;32.33;18.02;;;;;;;;;;5004866;28;20034;-71
2023/01/23 07:22:20;;;;;;;35.63;19.33;;;;;;;;;;5005469;28;20632;-71
2023/01/23 07:24:46;;;;;;;36.55;20.00;;;;;;;;;;5004040;28;20034;-71
2023/01/23 07:27:12;;;;;;;32.85;19.38;;;;;;;;;;5006157;28;20030;-71
2023/01/23 07:29:37;;;;;;;38.85;20.15;;;;;;;;;;5003542;28;20034;-71
2023/01/23 07:32:02;;;;;;;39.58;20.13;;;;;;;;;;5006099;28;20029;-72
2023/01/23 07:34:27;;;;;;;39.00;20.02;;;;;;;;;;5005636;28;20041;-70
2023/01/23 07:36:53;;;;;;;36.38;19.85;;;;;;;;;;5005294;28;20598;-72
2023/01/23 07:39:18;;;;;;;36.47;19.83;;;;;;;;;;5006090;28;20049;-73
2023/01/23 07:41:46;;;;;;;35.17;19.40;;;;;;;;;;5002387;28;20038;-73
2023/01/23 07:44:15;;;;;;;36.45;20.63;;;;;;;;;;4987010;28;20026;-72
2023/01/23 07:46:45;;;;;;;35.28;20.60;;;;;;;;;;4993787;28;20032;-72
2023/01/23 07:49:11;;;;;;;34.33;20.65;;;;;;;;;;5003376;28;20042;-73
2023/01/23 07:51:36;;;;;;;42.35;21.70;;;;;;;;;;5003458;28;20037;-73
2023/01/23 07:54:02;;;;;;;36.75;20.77;;;;;;;;;;5006068;28;20164;-73
2023/01/23 07:56:27;;;;;;;35.78;20.23;;;;;;;;;;5005580;28;20125;-74
2023/01/23 07:58:52;;;;;;;40.13;21.33;;;;;;;;;;5004193;28;20022;-73
2023/01/23 08:01:18;;;;;;;32.58;19.80;;;;;;;;;;5003400;28;20081;-74
2023/01/23 08:03:43;;;;;;;36.63;20.00;;;;;;;;;;5005773;28;20032;-73
2023/01/23 08:06:12;;;;;;;37.05;20.35;;;;;;;;;;5005098;28;20439;-74
2023/01/23 08:08:37;;;;;;;40.55;21.25;;;;;;;;;;5006036;28;20029;-73
2023/01/23 08:11:03;;;;;;;38.25;21.15;;;;;;;;;;5003596;28;20029;-74
2023/01/23 08:13:29;;;;;;;37.10;21.15;;;;;;;;;;5005498;28;20109;-73
2023/01/23 08:15:56;;;;;;;36.70;21.65;;;;;;;;;;5005018;28;20454;-72
2023/01/23 08:18:21;;;;;;;40.65;21.88;;;;;;;;;;5005030;28;20041;-73
2023/01/23 08:20:56;;;;;;;39.13;21.23;;;;;;;;;;5002598;28;20026;-72
2023/01/23 08:23:29;;;;;;;41.03;21.35;;;;;;;;;;5004617;28;20033;-73
2023/01/23 08:25:55;;;;;;;39.70;22.13;;;;;;;;;;5004826;28;20479;-73
2023/01/23 08:28:20;;;;;;;42.00;21.95;;;;;;;;;;5003301;28;20040;-73
2023/01/23 08:30:46;;;;;;;40.17;22.40;;;;;;;;;;5005032;28;20038;-73
2023/01/23 08:33:11;;;;;;;41.15;22.17;;;;;;;;;;5005265;28;20030;-73
2023/01/23 08:35:37;;;;;;;40.00;21.55;;;;;;;;;;5004711;28;20038;-73
2023/01/23 08:38:06;;;;;;;40.67;21.20;;;;;;;;;;5003615;28;20026;-73
2023/01/23 08:40:32;;;;;;;39.75;22.55;;;;;;;;;;5004102;28;20407;-74
2023/01/23 08:42:57;;;;;;;36.10;21.38;;;;;;;;;;4990907;28;20035;-74
2023/01/23 08:45:24;;;;;;;39.47;22.65;;;;;;;;;;4988891;28;20034;-73
2023/01/23 08:47:49;;;;;;;39.40;22.23;;;;;;;;;;4986449;28;20035;-74
2023/01/23 08:50:15;;;;;;;41.63;21.88;;;;;;;;;;4984540;28;20045;-73
2023/01/23 08:52:40;;;;;;;41.88;22.33;;;;;;;;;;4983622;28;20106;-73
2023/01/23 08:55:05;;;;;;;44.75;22.50;;;;;;;;;;4984436;28;20109;-71
2023/01/23 08:57:31;;;;;;;41.20;21.15;;;;;;;;;;4983526;28;20034;-72
2023/01/23 08:59:56;;;;;;;41.72;22.77;;;;;;;;;;4984811;28;20077;-72
2023/01/23 09:02:21;;;;;;;40.30;21.77;;;;;;;;;;4983991;28;20553;-74
2023/01/23 09:04:47;;;;;;;43.70;22.20;;;;;;;;;;4982429;28;20126;-73
2023/01/23 09:07:12;;;;;;;46.95;23.17;;;;;;;;;;4984302;28;20411;-73
2023/01/23 09:09:38;;;;;;;41.30;22.40;;;;;;;;;;4984728;28;20039;-74
2023/01/23 09:12:03;;;;;;;44.10;23.80;;;;;;;;;;4983948;28;20073;-73
2023/01/23 09:14:29;;;;;;;43.25;22.77;;;;;;;;;;4983044;28;20049;-74
2023/01/23 09:16:54;;;;;;;41.40;23.85;;;;;;;;;;4983927;28;20034;-74
2023/01/23 09:19:19;;;;;;;42.75;23.05;;;;;;;;;;4983696;28;20026;-73
2023/01/23 09:21:47;;;;;;;46.60;23.13;;;;;;;;;;4984309;28;20033;-72
2023/01/23 09:24:15;;;;;;;40.10;23.10;;;;;;;;;;4984250;28;20102;-72
2023/01/23 09:26:42;;;;;;;38.67;21.85;;;;;;;;;;4984639;28;20464;-72
2023/01/23 09:29:07;;;;;;;42.47;22.67;;;;;;;;;;4983879;28;20022;-73
2023/01/23 09:31:32;;;;;;;43.63;23.75;;;;;;;;;;4983805;28;20181;-72
2023/01/23 09:33:58;;;;;;;44.80;23.98;;;;;;;;;;4983517;28;20081;-72
2023/01/23 09:36:23;;;;;;;40.72;23.27;;;;;;;;;;4983974;28;20031;-73
2023/01/23 09:38:51;;;;;;;42.08;23.35;;;;;;;;;;4981336;28;20407;-73
2023/01/23 09:41:21;;;;;;;43.22;23.38;;;;;;;;;;4982439;28;20052;-72
2023/01/23 09:43:57;;;;;;;41.83;22.27;;;;;;;;;;4981963;28;20126;-72
2023/01/23 09:46:34;;;;;;;47.55;23.08;;;;;;;;;;4988790;28;20053;-72
2023/01/23 09:49:26;;;;;;;44.00;24.90;;;;;;;;;;5003732;28;20506;-73
2023/01/23 09:51:57;;;;;;;46.58;23.67;;;;;;;;;;5003568;28;20026;-72
2023/01/23 09:54:25;;;;;;;48.08;24.63;;;;;;;;;;5003180;28;20026;-73
2023/01/23 09:56:51;;;;;;;53.30;26.23;;;;;;;;;;5003394;28;20022;-73
2023/01/23 09:59:24;;;;;;;43.97;24.20;;;;;;;;;;5001732;28;20026;-73
2023/01/23 10:01:49;;;;;;;55.88;26.10;;;;;;;;;;4985205;28;20034;-73
2023/01/23 10:04:16;;;;;;;44.85;25.75;;;;;;;;;;5001544;28;20034;-73
2023/01/23 10:06:57;;;;;;;48.05;27.15;;;;;;;;;;5001150;28;20033;-72
2023/01/23 10:09:29;;;;;;;48.10;26.35;;;;;;;;;;5001181;28;20046;-72
2023/01/23 10:11:54;;;;;;;52.78;27.20;;;;;;;;;;5002882;28;20026;-72
2023/01/23 10:14:26;;;;;;;52.25;28.00;;;;;;;;;;5003567;28;20022;-73
2023/01/23 10:16:51;;;;;;;;;;;;;;;;;;5003574;28;20034;-73
2023/01/23 10:19:19;;;;;;;51.65;27.98;;;;;;;;;;5003148;28;19988;-72
2023/01/23 10:21:45;;;;;;;47.35;25.98;;;;;;;;;;5003132;28;20117;-73
2023/01/23 10:24:20;;;;;;;48.40;27.35;;;;;;;;;;5001438;28;20030;-73
2023/01/23 10:26:48;;;;;;;48.10;26.08;;;;;;;;;;5000996;28;20271;-73
2023/01/23 10:29:13;;;;;;;52.78;27.23;;;;;;;;;;5000682;28;20034;-72
2023/01/23 10:31:42;;;;;;;43.40;24.92;;;;;;;;;;5002874;28;20026;-72
2023/01/23 10:34:07;;;;;;;43.63;25.08;;;;;;;;;;5000847;28;20022;-72
2023/01/23 10:36:32;;;;;;;46.17;25.08;;;;;;;;;;5001143;28;20052;-74
2023/01/23 10:39:01;;;;;;;47.20;24.13;;;;;;;;;;5002225;28;20022;-72
2023/01/23 10:41:27;;;;;;;43.80;25.38;;;;;;;;;;4998720;28;20085;-74
2023/01/23 10:43:53;;;;;;;47.65;25.95;;;;;;;;;;4983663;28;20030;-73
2023/01/23 10:46:19;;;;;;;51.45;26.92;;;;;;;;;;4987036;28;20030;-73
2023/01/23 10:48:46;;;;;;;42.55;24.38;;;;;;;;;;5003195;28;20030;-73
2023/01/23 10:51:30;;;;;;;40.05;23.52;;;;;;;;;;5002188;28;20122;-73
2023/01/23 10:54:13;;;;;;;38.47;23.70;;;;;;;;;;5000741;28;20033;-74
2023/01/23 10:56:53;;;;;;;38.30;22.73;;;;;;;;;;5002516;28;20044;-73
2023/01/23 10:59:40;;;;;;;39.05;22.52;;;;;;;;;;5002173;28;20273;-72
2023/01/23 11:02:11;;;;;;;39.90;21.25;;;;;;;;;;5002346;28;20053;-72
2023/01/23 11:04:36;;;;;;;36.33;21.77;;;;;;;;;;5002783;28;20030;-74
2023/01/23 11:07:07;;;;;;;32.70;20.25;;;;;;;;;;5003293;28;20061;-73
2023/01/23 11:09:43;;;;;;;36.25;20.85;;;;;;;;;;5000952;28;20034;-73
2023/01/23 11:12:13;;;;;;;38.30;22.27;;;;;;;;;;4984462;28;20026;-73
2023/01/23 11:14:38;;;;;;;29.90;20.20;;;;;;;;;;5000484;28;20045;-74
2023/01/23 11:17:17;;;;;;;33.10;20.80;;;;;;;;;;5001093;28;20018;-73
2023/01/23 11:19:44;;;;;;;47.40;21.60;;;;;;;;;;5002241;28;20053;-73
2023/01/23 11:22:23;;;;;;;33.83;19.70;;;;;;;;;;4991593;28;20053;-73
2023/01/23 11:24:48;;;;;;;32.55;18.98;;;;;;;;;;5003713;28;20667;-73
2023/01/23 11:27:13;;;;;;;31.33;19.17;;;;;;;;;;5006073;28;20034;-73
2023/01/23 11:29:54;;;;;;;30.55;18.65;;;;;;;;;;5005623;28;20030;-72
2023/01/23 11:32:20;;;;;;;33.33;20.48;;;;;;;;;;5006010;28;20121;-74
2023/01/23 11:34:48;;;;;;;34.53;20.92;;;;;;;;;;5004884;28;20433;-72
2023/01/23 11:37:19;;;;;;;33.28;20.25;;;;;;;;;;5005719;28;20022;-71
2023/01/23 11:39:45;;;;;;;29.67;19.25;;;;;;;;;;5005187;28;20034;-72
2023/01/23 11:42:11;;;;;;;26.25;17.95;;;;;;;;;;4994983;28;20045;-74
2023/01/23 11:44:37;;;;;;;26.60;17.30;;;;;;;;;;4985886;28;20022;-73
2023/01/23 11:47:18;;;;;;;25.75;16.67;;;;;;;;;;4996612;28;20064;-74
2023/01/23 11:50:03;;;;;;;28.77;17.42;;;;;;;;;;5003680;28;20415;-73
2023/01/23 11:52:48;;;;;;;28.98;17.17;;;;;;;;;;5005046;28;20026;-74
2023/01/23 11:55:32;;;;;;;27.88;17.50;;;;;;;;;;5004949;28;20487;-73
2023/01/23 11:58:35;;;;;;;26.75;16.27;;;;;;;;;;5005202;28;20030;-72
2023/01/23 12:01:19;;;;;;;29.15;15.75;;;;;;;;;;5002222;28;20026;-73
2023/01/23 12:04:00;;;;;;;21.50;14.43;;;;;;;;;;5000408;28;20037;-73
2023/01/23 12:06:43;;;;;;;21.52;14.05;;;;;;;;;;5002466;28;20030;-73
2023/01/23 12:09:09;;;;;;;22.92;14.80;;;;;;;;;;5005303;28;20064;-73
2023/01/23 12:11:55;;;;;;;25.45;14.73;;;;;;;;;;5005233;28;20440;-73
2023/01/23 12:14:20;;;;;;;21.02;13.85;;;;;;;;;;5002891;28;20037;-73
2023/01/23 12:16:57;;;;;;;19.10;12.77;;;;;;;;;;5004807;28;20030;-73
2023/01/23 12:19:41;;;;;;;20.17;12.63;;;;;;;;;;5003274;28;20558;-73
2023/01/23 12:22:25;;;;;;;21.30;14.05;;;;;;;;;;5004716;28;20030;-73
2023/01/23 12:25:02;;;;;;;18.05;11.88;;;;;;;;;;5003613;28;20533;-74
2023/01/23 12:27:43;;;;;;;19.00;11.75;;;;;;;;;;5005092;28;20076;-73
2023/01/23 12:30:18;;;;;;;18.27;11.33;;;;;;;;;;5004710;28;20034;-73
2023/01/23 12:32:51;;;;;;;22.65;13.65;;;;;;;;;;5005017;28;20037;-73
2023/01/23 12:35:19;;;;;;;20.67;13.02;;;;;;;;;;5007253;28;20030;-73
2023/01/23 12:37:49;;;;;;;21.45;12.85;;;;;;;;;;5004542;28;20086;-72
2023/01/23 12:40:16;;;;;;;20.65;13.23;;;;;;;;;;5004372;28;20052;-73
2023/01/23 12:42:41;;;;;;;17.80;12.20;;;;;;;;;;4989170;28;20034;-73
2023/01/23 12:45:10;;;;;;;17.13;11.60;;;;;;;;;;4989743;28;20030;-72
2023/01/23 12:47:41;;;;;;;16.88;11.40;;;;;;;;;;5000770;28;20088;-72
2023/01/23 12:50:20;;;;;;;17.17;10.87;;;;;;;;;;5004302;28;20046;-73
2023/01/23 12:52:48;;;;;;;15.48;10.60;;;;;;;;;;5004610;28;20033;-73
2023/01/23 12:55:19;;;;;;;11.95;8.60;;;;;;;;;;5002380;28;20021;-73
2023/01/23 12:57:50;;;;;;;11.55;6.82;;;;;;;;;;5002388;28;20046;-73
2023/01/23 13:00:28;;;;;;;12.97;8.63;;;;;;;;;;5004176;28;20033;-72
2023/01/23 13:02:56;;;;;;;8.70;6.03;;;;;;;;;;5002815;28;20030;-72
2023/01/23 13:05:54;;;;;;;8.85;5.60;;;;;;;;;;5003801;28;20042;-73
2023/01/23 13:08:19;;;;;;;13.52;6.50;;;;;;;;;;4990698;28;20030;-72
2023/01/23 13:13:29;;;;;;;9.90;7.32;;;;;;;;;;5003941;28;20080;-72
2023/01/23 13:16:02;;;;;;;10.15;6.78;;;;;;;;;;5002600;28;20037;-72
2023/01/23 13:18:28;;;;;;;11.57;8.07;;;;;;;;;;5003005;28;20158;-73
2023/01/23 13:23:39;;;;;;;11.05;7.05;;;;;;;;;;5004326;28;20030;-72
2023/01/23 13:26:21;;;;;;;8.50;4.90;;;;;;;;;;5002297;28;20996;-72
2023/01/23 13:28:47;;;;;;;5.93;4.45;;;;;;;;;;5001982;28;20208;-72
2023/01/23 13:31:32;;;;;;;7.05;5.03;;;;;;;;;;5002130;28;20030;-72
2023/01/23 13:33:58;;;;;;;10.18;7.10;;;;;;;;;;5003005;28;20048;-72
2023/01/23 13:36:32;;;;;;;9.15;6.95;;;;;;;;;;5002047;28;20036;-72
2023/01/23 13:39:16;;;;;;;7.88;5.70;;;;;;;;;;5001581;28;20048;-74
2023/01/23 13:41:44;;;;;;;7.20;5.43;;;;;;;;;;4994084;28;20037;-72
2023/01/23 13:44:28;;;;;;;6.90;4.43;;;;;;;;;;4981753;28;20109;-73
2023/01/23 13:47:04;;;;;;;6.53;4.68;;;;;;;;;;4980712;28;20050;-72
2023/01/23 13:49:51;;;;;;;6.65;4.82;;;;;;;;;;4983846;28;20514;-71
2023/01/23 13:57:58;;;;;;;7.40;4.80;;;;;;;;;;4981835;28;20058;-73
2023/01/23 14:00:24;;;;;;;5.10;3.90;;;;;;;;;;4983617;28;20085;-72
2023/01/23 14:06:01;;;;;;;9.15;5.15;;;;;;;;;;4983355;28;20364;-72
2023/01/23 14:08:26;;;;;;;6.88;4.50;;;;;;;;;;4983560;28;20038;-72
2023/01/23 14:10:51;;;;;;;7.95;3.85;;;;;;;;;;4984059;28;20042;-72
2023/01/23 14:13:21;;;;;;;6.47;3.58;;;;;;;;;;4981570;28;20038;-72
2023/01/23 14:16:08;;;;;;;5.00;3.40;;;;;;;;;;4983051;28;20451;-72
2023/01/23 14:18:37;;;;;;;5.40;3.72;;;;;;;;;;4983316;28;20030;-73
2023/01/23 14:21:02;;;;;;;4.78;3.65;;;;;;;;;;4982618;28;20049;-72
2023/01/23 14:23:29;;;;;;;4.95;3.10;;;;;;;;;;4981631;28;20039;-73
2023/01/23 14:25:55;;;;;;;5.43;3.30;;;;;;;;;;4981388;28;20038;-71
2023/01/23 14:28:20;;;;;;;4.65;3.10;;;;;;;;;;4981697;28;20022;-72
2023/01/23 14:31:12;;;;;;;6.18;4.07;;;;;;;;;;4965330;28;20129;-70
2023/01/23 14:33:41;;;;;;;5.88;4.35;;;;;;;;;;4979294;28;20538;-71
2023/01/23 14:36:13;;;;;;;5.05;3.40;;;;;;;;;;4981969;28;20113;-72
2023/01/23 14:38:39;;;;;;;6.18;3.97;;;;;;;;;;4983450;28;20025;-72
2023/01/23 14:41:07;;;;;;;6.45;4.03;;;;;;;;;;4981223;28;20043;-72
2023/01/23 14:43:34;;;;;;;5.40;4.00;;;;;;;;;;4981343;28;20394;-71
2023/01/23 14:46:01;;;;;;;7.07;4.60;;;;;;;;;;4986123;28;20076;-71
2023/01/23 14:48:26;;;;;;;7.97;5.03;;;;;;;;;;5002882;28;20022;-72